sensor_id;sensor_type;location;lat;lon;timestamp;temperature;humidity
13744;DHT22;6943;52.368;9.966;2022-08-05T00:01:14;22.00;99.90
13744;DHT22;6943;52.368;9.966;2022-08-05T00:03:40;22.00;99.90
13744;DHT22;6943;52.368;9.966;2022-08-05T00:06:06;21.90;99.90
13744;DHT22;6943;52.368;9.966;2022-08-05T00:08:32;21.90;99.90
13744;DHT22;6943;52.368;9.966;2022-08-05T00:10:59;21.90;99.90
13744;DHT22;6943;52.368;9.966;2022-08-05T00:13:24;21.90;99.90
13744;DHT22;6943;52.368;9.966;2022-08-05T00:15:50;21.90;99.90
13744;DHT22;6943;52.368;9.966;2022-08-05T00:18:15;21.80;99.90
13744;DHT22;6943;52.368;9.966;2022-08-05T00:20:41;21.80;99.90
13744;DHT22;6943;52.368;9.966;2022-08-05T00:23:06;21.80;99.90
13744;DHT22;6943;52.368;9.966;2022-08-05T00:25:32;21.80;99.90
13744;DHT22;6943;52.368;9.966;2022-08-05T00:27:57;21.80;99.90
13744;DHT22;6943;52.368;9.966;2022-08-05T00:30:23;21.80;99.90
13744;DHT22;6943;52.368;9.966;2022-08-05T00:32:48;21.70;99.90
13744;DHT22;6943;52.368;9.966;2022-08-05T00:35:14;21.60;99.90
13744;DHT22;6943;52.368;9.966;2022-08-05T00:37:40;21.60;99.90
13744;DHT22;6943;52.368;9.966;2022-08-05T00:40:06;21.60;99.90
13744;DHT22;6943;52.368;9.966;2022-08-05T00:42:32;21.60;99.90
13744;DHT22;6943;52.368;9.966;2022-08-05T00:44:59;21.50;99.90
13744;DHT22;6943;52.368;9.966;2022-08-05T00:47:24;21.40;99.90
13744;DHT22;6943;52.368;9.966;2022-08-05T00:49:50;21.30;99.90
13744;DHT22;6943;52.368;9.966;2022-08-05T00:52:15;21.30;99.90
13744;DHT22;6943;52.368;9.966;2022-08-05T00:54:41;21.30;99.90
13744;DHT22;6943;52.368;9.966;2022-08-05T00:57:06;21.20;99.90
13744;DHT22;6943;52.368;9.966;2022-08-05T00:59:32;21.20;99.90
13744;DHT22;6943;52.368;9.966;2022-08-05T01:01:58;21.20;99.90
13744;DHT22;6943;52.368;9.966;2022-08-05T01:04:23;21.10;99.90
13744;DHT22;6943;52.368;9.966;2022-08-05T01:06:49;21.10;99.90
13744;DHT22;6943;52.368;9.966;2022-08-05T01:09:14;21.00;99.90
13744;DHT22;6943;52.368;9.966;2022-08-05T01:11:40;21.00;99.90
13744;DHT22;6943;52.368;9.966;2022-08-05T01:16:59;20.90;99.90
13744;DHT22;6943;52.368;9.966;2022-08-05T01:22:30;20.70;99.90
13744;DHT22;6943;52.368;9.966;2022-08-05T01:28:19;20.60;99.90
13744;DHT22;6943;52.368;9.966;2022-08-05T01:31:14;20.70;99.90
13744;DHT22;6943;52.368;9.966;2022-08-05T01:34:02;20.70;99.90
13744;DHT22;6943;52.368;9.966;2022-08-05T01:36:31;20.80;99.90
13744;DHT22;6943;52.368;9.966;2022-08-05T01:38:58;20.70;99.90
13744;DHT22;6943;52.368;9.966;2022-08-05T01:41:25;20.70;99.90
13744;DHT22;6943;52.368;9.966;2022-08-05T01:43:52;20.70;99.90
13744;DHT22;6943;52.368;9.966;2022-08-05T01:46:20;20.70;99.90
13744;DHT22;6943;52.368;9.966;2022-08-05T01:48:47;20.80;99.90
13744;DHT22;6943;52.368;9.966;2022-08-05T01:51:16;20.80;99.90
13744;DHT22;6943;52.368;9.966;2022-08-05T01:53:43;20.90;99.90
13744;DHT22;6943;52.368;9.966;2022-08-05T01:56:10;20.90;99.90
13744;DHT22;6943;52.368;9.966;2022-08-05T01:58:39;20.90;99.90
13744;DHT22;6943;52.368;9.966;2022-08-05T02:01:07;20.80;99.90
13744;DHT22;6943;52.368;9.966;2022-08-05T02:03:37;20.80;99.90
13744;DHT22;6943;52.368;9.966;2022-08-05T02:06:05;20.80;99.90
13744;DHT22;6943;52.368;9.966;2022-08-05T02:08:32;20.90;99.90
13744;DHT22;6943;52.368;9.966;2022-08-05T02:11:07;20.80;99.90
13744;DHT22;6943;52.368;9.966;2022-08-05T02:13:38;20.90;99.90
13744;DHT22;6943;52.368;9.966;2022-08-05T02:16:21;20.80;99.90
13744;DHT22;6943;52.368;9.966;2022-08-05T02:19:10;20.80;99.90
13744;DHT22;6943;52.368;9.966;2022-08-05T02:21:42;20.70;99.90
13744;DHT22;6943;52.368;9.966;2022-08-05T02:24:10;20.70;99.90
13744;DHT22;6943;52.368;9.966;2022-08-05T02:26:46;20.70;99.90
13744;DHT22;6943;52.368;9.966;2022-08-05T02:29:16;20.70;99.90
13744;DHT22;6943;52.368;9.966;2022-08-05T02:31:44;20.70;99.90
13744;DHT22;6943;52.368;9.966;2022-08-05T02:34:10;20.70;99.90
13744;DHT22;6943;52.368;9.966;2022-08-05T02:36:41;20.70;99.90
13744;DHT22;6943;52.368;9.966;2022-08-05T02:39:07;20.60;99.90
13744;DHT22;6943;52.368;9.966;2022-08-05T02:41:34;20.40;99.90
13744;DHT22;6943;52.368;9.966;2022-08-05T02:44:01;20.00;99.90
13744;DHT22;6943;52.368;9.966;2022-08-05T02:46:28;19.90;99.90
13744;DHT22;6943;52.368;9.966;2022-08-05T02:48:54;19.80;99.90
13744;DHT22;6943;52.368;9.966;2022-08-05T02:51:20;20.00;99.90
13744;DHT22;6943;52.368;9.966;2022-08-05T02:53:47;20.10;99.90
13744;DHT22;6943;52.368;9.966;2022-08-05T02:56:14;20.20;99.90
13744;DHT22;6943;52.368;9.966;2022-08-05T02:58:40;20.30;99.90
13744;DHT22;6943;52.368;9.966;2022-08-05T03:01:10;20.30;99.90
13744;DHT22;6943;52.368;9.966;2022-08-05T03:03:39;20.10;99.90
13744;DHT22;6943;52.368;9.966;2022-08-05T03:06:07;19.80;99.90
13744;DHT22;6943;52.368;9.966;2022-08-05T03:08:35;19.50;99.90
13744;DHT22;6943;52.368;9.966;2022-08-05T03:11:01;19.10;99.90
13744;DHT22;6943;52.368;9.966;2022-08-05T03:13:27;19.10;99.90
13744;DHT22;6943;52.368;9.966;2022-08-05T03:15:52;19.20;99.90
13744;DHT22;6943;52.368;9.966;2022-08-05T03:18:18;19.20;99.90
13744;DHT22;6943;52.368;9.966;2022-08-05T03:20:43;19.20;99.90
13744;DHT22;6943;52.368;9.966;2022-08-05T03:23:09;19.30;99.90
13744;DHT22;6943;52.368;9.966;2022-08-05T03:25:36;19.50;99.90
13744;DHT22;6943;52.368;9.966;2022-08-05T03:28:04;19.30;99.90
13744;DHT22;6943;52.368;9.966;2022-08-05T03:30:30;19.20;99.90
13744;DHT22;6943;52.368;9.966;2022-08-05T03:32:58;19.00;99.90
13744;DHT22;6943;52.368;9.966;2022-08-05T03:35:24;18.90;99.90
13744;DHT22;6943;52.368;9.966;2022-08-05T03:37:52;18.70;99.90
13744;DHT22;6943;52.368;9.966;2022-08-05T03:40:17;18.70;99.90
13744;DHT22;6943;52.368;9.966;2022-08-05T03:42:43;18.60;99.90
13744;DHT22;6943;52.368;9.966;2022-08-05T03:45:09;18.80;99.90
13744;DHT22;6943;52.368;9.966;2022-08-05T03:47:34;19.00;99.90
13744;DHT22;6943;52.368;9.966;2022-08-05T03:50:00;19.10;99.90
13744;DHT22;6943;52.368;9.966;2022-08-05T03:52:31;19.20;99.90
13744;DHT22;6943;52.368;9.966;2022-08-05T03:55:03;19.40;99.90
13744;DHT22;6943;52.368;9.966;2022-08-05T03:57:31;19.50;99.90
13744;DHT22;6943;52.368;9.966;2022-08-05T04:00:26;19.50;99.90
13744;DHT22;6943;52.368;9.966;2022-08-05T04:02:58;19.60;99.90
13744;DHT22;6943;52.368;9.966;2022-08-05T04:05:32;19.70;99.90
13744;DHT22;6943;52.368;9.966;2022-08-05T04:08:01;19.80;99.90
13744;DHT22;6943;52.368;9.966;2022-08-05T04:10:28;19.90;99.90
13744;DHT22;6943;52.368;9.966;2022-08-05T04:12:55;19.90;99.90
13744;DHT22;6943;52.368;9.966;2022-08-05T04:15:21;19.80;99.90
13744;DHT22;6943;52.368;9.966;2022-08-05T04:17:47;19.80;99.90
13744;DHT22;6943;52.368;9.966;2022-08-05T04:20:19;19.80;99.90
13744;DHT22;6943;52.368;9.966;2022-08-05T04:22:45;19.80;99.90
13744;DHT22;6943;52.368;9.966;2022-08-05T04:25:11;19.80;99.90
13744;DHT22;6943;52.368;9.966;2022-08-05T04:27:36;19.90;99.90
13744;DHT22;6943;52.368;9.966;2022-08-05T04:30:03;19.90;99.90
13744;DHT22;6943;52.368;9.966;2022-08-05T04:32:28;19.90;99.90
13744;DHT22;6943;52.368;9.966;2022-08-05T04:34:54;19.90;99.90
13744;DHT22;6943;52.368;9.966;2022-08-05T04:37:19;19.90;99.90
13744;DHT22;6943;52.368;9.966;2022-08-05T04:39:45;19.70;99.90
13744;DHT22;6943;52.368;9.966;2022-08-05T04:42:10;19.80;99.90
13744;DHT22;6943;52.368;9.966;2022-08-05T04:44:36;19.90;99.90
13744;DHT22;6943;52.368;9.966;2022-08-05T04:47:01;19.90;99.90
13744;DHT22;6943;52.368;9.966;2022-08-05T04:49:27;20.00;99.90
13744;DHT22;6943;52.368;9.966;2022-08-05T04:51:52;20.00;99.90
13744;DHT22;6943;52.368;9.966;2022-08-05T04:54:18;20.00;99.90
13744;DHT22;6943;52.368;9.966;2022-08-05T04:56:44;20.10;99.90
13744;DHT22;6943;52.368;9.966;2022-08-05T04:59:10;20.20;99.90
13744;DHT22;6943;52.368;9.966;2022-08-05T05:01:35;20.20;99.90
13744;DHT22;6943;52.368;9.966;2022-08-05T05:04:01;20.20;99.90
13744;DHT22;6943;52.368;9.966;2022-08-05T05:06:27;20.20;99.90
13744;DHT22;6943;52.368;9.966;2022-08-05T05:08:52;20.30;99.90
13744;DHT22;6943;52.368;9.966;2022-08-05T05:11:18;20.30;99.90
13744;DHT22;6943;52.368;9.966;2022-08-05T05:13:43;20.40;99.90
13744;DHT22;6943;52.368;9.966;2022-08-05T05:16:09;20.40;99.90
13744;DHT22;6943;52.368;9.966;2022-08-05T05:18:35;20.50;99.90
13744;DHT22;6943;52.368;9.966;2022-08-05T05:21:01;20.70;99.90
13744;DHT22;6943;52.368;9.966;2022-08-05T05:23:27;20.90;99.90
13744;DHT22;6943;52.368;9.966;2022-08-05T05:25:53;21.40;99.90
13744;DHT22;6943;52.368;9.966;2022-08-05T05:28:18;21.80;99.90
13744;DHT22;6943;52.368;9.966;2022-08-05T05:30:45;22.20;99.90
13744;DHT22;6943;52.368;9.966;2022-08-05T05:33:11;23.10;99.90
13744;DHT22;6943;52.368;9.966;2022-08-05T05:35:36;24.50;99.90
13744;DHT22;6943;52.368;9.966;2022-08-05T05:38:02;25.70;1.00
13744;DHT22;6943;52.368;9.966;2022-08-05T05:40:30;26.00;1.00
13744;DHT22;6943;52.368;9.966;2022-08-05T05:42:55;26.10;1.00
13744;DHT22;6943;52.368;9.966;2022-08-05T05:45:21;26.20;99.90
13744;DHT22;6943;52.368;9.966;2022-08-05T05:47:47;25.90;99.90
13744;DHT22;6943;52.368;9.966;2022-08-05T05:50:15;25.70;1.00
13744;DHT22;6943;52.368;9.966;2022-08-05T05:52:41;25.50;99.90
13744;DHT22;6943;52.368;9.966;2022-08-05T05:55:09;25.10;5.90
13744;DHT22;6943;52.368;9.966;2022-08-05T05:57:39;24.80;1.00
13744;DHT22;6943;52.368;9.966;2022-08-05T06:00:10;24.50;1.00
13744;DHT22;6943;52.368;9.966;2022-08-05T06:02:36;23.80;1.00
13744;DHT22;6943;52.368;9.966;2022-08-05T06:05:02;23.10;1.00
13744;DHT22;6943;52.368;9.966;2022-08-05T06:07:27;22.50;1.00
13744;DHT22;6943;52.368;9.966;2022-08-05T06:09:53;22.20;1.00
13744;DHT22;6943;52.368;9.966;2022-08-05T06:12:19;21.90;1.00
13744;DHT22;6943;52.368;9.966;2022-08-05T06:14:44;21.80;22.40
13744;DHT22;6943;52.368;9.966;2022-08-05T06:17:10;21.60;66.50
13744;DHT22;6943;52.368;9.966;2022-08-05T06:19:36;21.50;99.90
13744;DHT22;6943;52.368;9.966;2022-08-05T06:22:03;21.20;99.90
13744;DHT22;6943;52.368;9.966;2022-08-05T06:24:28;21.20;99.90
13744;DHT22;6943;52.368;9.966;2022-08-05T06:26:54;20.90;99.90
13744;DHT22;6943;52.368;9.966;2022-08-05T06:29:20;20.40;99.90
13744;DHT22;6943;52.368;9.966;2022-08-05T06:31:45;20.20;99.90
13744;DHT22;6943;52.368;9.966;2022-08-05T06:34:11;20.10;99.90
13744;DHT22;6943;52.368;9.966;2022-08-05T06:36:36;19.80;99.90
13744;DHT22;6943;52.368;9.966;2022-08-05T06:39:02;19.70;99.90
13744;DHT22;6943;52.368;9.966;2022-08-05T06:41:27;19.60;99.90
13744;DHT22;6943;52.368;9.966;2022-08-05T06:43:53;19.60;99.90
13744;DHT22;6943;52.368;9.966;2022-08-05T06:46:18;19.60;99.90
13744;DHT22;6943;52.368;9.966;2022-08-05T06:48:44;19.40;99.90
13744;DHT22;6943;52.368;9.966;2022-08-05T06:51:09;19.10;99.90
13744;DHT22;6943;52.368;9.966;2022-08-05T06:53:35;19.00;99.90
13744;DHT22;6943;52.368;9.966;2022-08-05T06:56:01;19.10;99.90
13744;DHT22;6943;52.368;9.966;2022-08-05T06:58:30;18.90;99.90
13744;DHT22;6943;52.368;9.966;2022-08-05T07:01:00;19.00;99.90
13744;DHT22;6943;52.368;9.966;2022-08-05T07:03:26;19.10;99.90
13744;DHT22;6943;52.368;9.966;2022-08-05T07:05:53;19.10;99.90
13744;DHT22;6943;52.368;9.966;2022-08-05T07:08:18;18.70;99.90
13744;DHT22;6943;52.368;9.966;2022-08-05T07:10:46;19.00;99.90
13744;DHT22;6943;52.368;9.966;2022-08-05T07:13:12;18.90;99.90
13744;DHT22;6943;52.368;9.966;2022-08-05T07:15:56;18.90;99.90
13744;DHT22;6943;52.368;9.966;2022-08-05T07:18:40;19.20;99.90
13744;DHT22;6943;52.368;9.966;2022-08-05T07:21:05;18.90;99.90
13744;DHT22;6943;52.368;9.966;2022-08-05T07:23:32;19.20;99.90
13744;DHT22;6943;52.368;9.966;2022-08-05T07:25:57;19.40;99.90
13744;DHT22;6943;52.368;9.966;2022-08-05T07:28:22;19.80;99.90
13744;DHT22;6943;52.368;9.966;2022-08-05T07:30:49;19.60;99.90
13744;DHT22;6943;52.368;9.966;2022-08-05T07:33:14;19.10;99.90
13744;DHT22;6943;52.368;9.966;2022-08-05T07:35:40;19.00;99.90
13744;DHT22;6943;52.368;9.966;2022-08-05T07:38:06;19.20;99.90
13744;DHT22;6943;52.368;9.966;2022-08-05T07:40:31;19.40;99.90
13744;DHT22;6943;52.368;9.966;2022-08-05T07:42:57;20.40;99.90
13744;DHT22;6943;52.368;9.966;2022-08-05T07:45:22;20.20;99.90
13744;DHT22;6943;52.368;9.966;2022-08-05T07:47:48;20.40;99.90
13744;DHT22;6943;52.368;9.966;2022-08-05T07:50:14;20.40;99.90
13744;DHT22;6943;52.368;9.966;2022-08-05T07:52:40;21.00;99.90
13744;DHT22;6943;52.368;9.966;2022-08-05T07:55:07;22.10;99.90
13744;DHT22;6943;52.368;9.966;2022-08-05T07:57:33;22.50;1.00
13744;DHT22;6943;52.368;9.966;2022-08-05T07:59:58;22.80;99.90
13744;DHT22;6943;52.368;9.966;2022-08-05T08:02:25;22.90;1.00
13744;DHT22;6943;52.368;9.966;2022-08-05T08:04:51;22.80;1.00
13744;DHT22;6943;52.368;9.966;2022-08-05T08:07:17;22.40;13.80
13744;DHT22;6943;52.368;9.966;2022-08-05T08:09:43;22.20;1.00
13744;DHT22;6943;52.368;9.966;2022-08-05T08:12:08;22.20;99.90
13744;DHT22;6943;52.368;9.966;2022-08-05T08:14:34;22.60;1.00
13744;DHT22;6943;52.368;9.966;2022-08-05T08:16:59;22.80;1.00
13744;DHT22;6943;52.368;9.966;2022-08-05T08:19:25;22.00;1.00
13744;DHT22;6943;52.368;9.966;2022-08-05T08:21:50;21.50;1.00
13744;DHT22;6943;52.368;9.966;2022-08-05T08:24:16;21.10;1.00
13744;DHT22;6943;52.368;9.966;2022-08-05T08:26:41;21.10;1.00
13744;DHT22;6943;52.368;9.966;2022-08-05T08:29:07;20.60;1.00
13744;DHT22;6943;52.368;9.966;2022-08-05T08:31:32;20.40;1.00
13744;DHT22;6943;52.368;9.966;2022-08-05T08:33:57;20.60;83.30
13744;DHT22;6943;52.368;9.966;2022-08-05T08:36:23;20.40;1.00
13744;DHT22;6943;52.368;9.966;2022-08-05T08:38:48;20.80;1.00
13744;DHT22;6943;52.368;9.966;2022-08-05T08:41:14;20.80;1.00
13744;DHT22;6943;52.368;9.966;2022-08-05T08:43:42;21.00;1.00
13744;DHT22;6943;52.368;9.966;2022-08-05T08:46:08;21.50;1.00
13744;DHT22;6943;52.368;9.966;2022-08-05T08:48:34;22.60;1.00
13744;DHT22;6943;52.368;9.966;2022-08-05T08:51:02;23.30;1.00
13744;DHT22;6943;52.368;9.966;2022-08-05T08:53:34;23.30;99.90
13744;DHT22;6943;52.368;9.966;2022-08-05T08:56:01;23.10;1.00
13744;DHT22;6943;52.368;9.966;2022-08-05T08:58:28;22.60;1.00
13744;DHT22;6943;52.368;9.966;2022-08-05T09:00:54;21.90;1.00
13744;DHT22;6943;52.368;9.966;2022-08-05T09:03:20;21.20;1.00
13744;DHT22;6943;52.368;9.966;2022-08-05T09:05:46;20.80;1.00
13744;DHT22;6943;52.368;9.966;2022-08-05T09:08:12;20.70;1.00
13744;DHT22;6943;52.368;9.966;2022-08-05T09:10:40;20.90;1.00
13744;DHT22;6943;52.368;9.966;2022-08-05T09:13:08;21.20;1.00
13744;DHT22;6943;52.368;9.966;2022-08-05T09:15:34;21.40;1.00
13744;DHT22;6943;52.368;9.966;2022-08-05T09:17:59;21.70;99.90
13744;DHT22;6943;52.368;9.966;2022-08-05T09:20:25;22.10;99.90
13744;DHT22;6943;52.368;9.966;2022-08-05T09:23:10;22.30;1.00
13744;DHT22;6943;52.368;9.966;2022-08-05T09:25:38;22.40;1.00
13744;DHT22;6943;52.368;9.966;2022-08-05T09:28:13;22.60;1.00
13744;DHT22;6943;52.368;9.966;2022-08-05T09:30:53;22.20;1.00
13744;DHT22;6943;52.368;9.966;2022-08-05T09:33:22;22.30;1.00
13744;DHT22;6943;52.368;9.966;2022-08-05T09:36:03;22.00;1.00
13744;DHT22;6943;52.368;9.966;2022-08-05T09:38:29;21.40;1.00
13744;DHT22;6943;52.368;9.966;2022-08-05T09:41:06;21.20;1.00
13744;DHT22;6943;52.368;9.966;2022-08-05T09:43:36;21.10;1.00
13744;DHT22;6943;52.368;9.966;2022-08-05T09:46:04;21.00;99.90
13744;DHT22;6943;52.368;9.966;2022-08-05T09:48:32;21.10;1.00
13744;DHT22;6943;52.368;9.966;2022-08-05T09:51:04;21.20;1.00
13744;DHT22;6943;52.368;9.966;2022-08-05T09:53:46;21.40;1.00
13744;DHT22;6943;52.368;9.966;2022-08-05T09:56:12;21.30;99.90
13744;DHT22;6943;52.368;9.966;2022-08-05T09:58:38;21.20;1.00
13744;DHT22;6943;52.368;9.966;2022-08-05T10:01:05;21.40;1.00
13744;DHT22;6943;52.368;9.966;2022-08-05T10:03:31;21.60;1.00
13744;DHT22;6943;52.368;9.966;2022-08-05T10:06:09;21.70;1.00
13744;DHT22;6943;52.368;9.966;2022-08-05T10:08:36;21.40;99.90
13744;DHT22;6943;52.368;9.966;2022-08-05T10:11:14;21.50;99.90
13744;DHT22;6943;52.368;9.966;2022-08-05T10:13:40;21.60;1.00
13744;DHT22;6943;52.368;9.966;2022-08-05T10:16:07;21.70;99.90
13744;DHT22;6943;52.368;9.966;2022-08-05T10:18:51;21.80;1.00
13744;DHT22;6943;52.368;9.966;2022-08-05T10:21:17;21.90;1.00
13744;DHT22;6943;52.368;9.966;2022-08-05T10:23:44;21.80;99.90
13744;DHT22;6943;52.368;9.966;2022-08-05T10:26:10;21.50;1.00
13744;DHT22;6943;52.368;9.966;2022-08-05T10:28:40;21.30;1.00
13744;DHT22;6943;52.368;9.966;2022-08-05T10:31:06;21.30;1.00
13744;DHT22;6943;52.368;9.966;2022-08-05T10:33:33;21.40;1.00
13744;DHT22;6943;52.368;9.966;2022-08-05T10:36:00;21.50;1.00
13744;DHT22;6943;52.368;9.966;2022-08-05T10:38:31;21.10;1.00
13744;DHT22;6943;52.368;9.966;2022-08-05T10:44:00;20.60;1.00
13744;DHT22;6943;52.368;9.966;2022-08-05T10:46:48;20.50;1.00
13744;DHT22;6943;52.368;9.966;2022-08-05T10:49:15;20.60;1.00
13744;DHT22;6943;52.368;9.966;2022-08-05T10:51:49;20.70;1.00
13744;DHT22;6943;52.368;9.966;2022-08-05T10:54:16;21.00;99.90
13744;DHT22;6943;52.368;9.966;2022-08-05T10:56:51;20.90;99.90
13744;DHT22;6943;52.368;9.966;2022-08-05T10:59:30;20.70;1.00
13744;DHT22;6943;52.368;9.966;2022-08-05T11:02:10;20.40;1.00
13744;DHT22;6943;52.368;9.966;2022-08-05T11:04:45;20.50;1.00
13744;DHT22;6943;52.368;9.966;2022-08-05T11:07:12;20.60;1.00
13744;DHT22;6943;52.368;9.966;2022-08-05T11:09:58;20.50;99.90
13744;DHT22;6943;52.368;9.966;2022-08-05T11:15:28;20.50;1.00
13744;DHT22;6943;52.368;9.966;2022-08-05T11:18:21;20.40;99.90
13744;DHT22;6943;52.368;9.966;2022-08-05T11:20:48;20.30;1.00
13744;DHT22;6943;52.368;9.966;2022-08-05T11:23:53;20.20;1.00
13744;DHT22;6943;52.368;9.966;2022-08-05T11:26:20;20.10;1.00
13744;DHT22;6943;52.368;9.966;2022-08-05T11:28:48;20.10;99.90
13744;DHT22;6943;52.368;9.966;2022-08-05T11:33:55;20.10;1.00
13744;DHT22;6943;52.368;9.966;2022-08-05T11:36:48;20.10;1.00
13744;DHT22;6943;52.368;9.966;2022-08-05T11:39:33;20.20;1.00
13744;DHT22;6943;52.368;9.966;2022-08-05T11:42:01;20.20;1.00
13744;DHT22;6943;52.368;9.966;2022-08-05T11:44:36;20.30;1.00
13744;DHT22;6943;52.368;9.966;2022-08-05T11:47:02;20.40;1.00
13744;DHT22;6943;52.368;9.966;2022-08-05T11:49:28;20.40;1.00
13744;DHT22;6943;52.368;9.966;2022-08-05T11:51:54;20.40;1.00
13744;DHT22;6943;52.368;9.966;2022-08-05T11:54:22;20.40;1.00
13744;DHT22;6943;52.368;9.966;2022-08-05T11:56:54;20.20;1.00
13744;DHT22;6943;52.368;9.966;2022-08-05T11:59:21;20.20;1.00
13744;DHT22;6943;52.368;9.966;2022-08-05T12:02:01;20.20;1.00
13744;DHT22;6943;52.368;9.966;2022-08-05T12:04:36;20.50;1.00
13744;DHT22;6943;52.368;9.966;2022-08-05T12:07:02;20.90;1.00
13744;DHT22;6943;52.368;9.966;2022-08-05T12:09:28;21.10;1.00
13744;DHT22;6943;52.368;9.966;2022-08-05T12:11:54;21.10;1.00
13744;DHT22;6943;52.368;9.966;2022-08-05T12:14:20;21.20;1.00
13744;DHT22;6943;52.368;9.966;2022-08-05T12:16:46;21.10;1.00
13744;DHT22;6943;52.368;9.966;2022-08-05T12:19:13;21.00;99.90
13744;DHT22;6943;52.368;9.966;2022-08-05T12:24:16;21.00;1.00
13744;DHT22;6943;52.368;9.966;2022-08-05T12:26:52;20.80;1.00
13744;DHT22;6943;52.368;9.966;2022-08-05T12:29:22;20.70;27.70
13744;DHT22;6943;52.368;9.966;2022-08-05T12:31:50;20.60;99.90
13744;DHT22;6943;52.368;9.966;2022-08-05T12:34:18;20.40;1.00
13744;DHT22;6943;52.368;9.966;2022-08-05T12:36:45;20.70;99.90
13744;DHT22;6943;52.368;9.966;2022-08-05T12:39:12;20.60;1.00
13744;DHT22;6943;52.368;9.966;2022-08-05T12:41:39;20.90;1.00
13744;DHT22;6943;52.368;9.966;2022-08-05T12:44:07;21.00;1.00
13744;DHT22;6943;52.368;9.966;2022-08-05T12:46:34;21.00;1.00
13744;DHT22;6943;52.368;9.966;2022-08-05T12:49:08;21.30;1.00
13744;DHT22;6943;52.368;9.966;2022-08-05T12:51:49;21.20;1.00
13744;DHT22;6943;52.368;9.966;2022-08-05T12:54:29;21.20;1.00
13744;DHT22;6943;52.368;9.966;2022-08-05T13:04:20;22.00;1.00
13744;DHT22;6943;52.368;9.966;2022-08-05T13:06:45;22.20;99.90
13744;DHT22;6943;52.368;9.966;2022-08-05T13:09:12;22.20;99.90
13744;DHT22;6943;52.368;9.966;2022-08-05T13:11:41;22.50;1.00
13744;DHT22;6943;52.368;9.966;2022-08-05T13:14:15;22.40;1.00
13744;DHT22;6943;52.368;9.966;2022-08-05T13:16:55;21.70;1.00
13744;DHT22;6943;52.368;9.966;2022-08-05T13:19:23;21.60;1.00
13744;DHT22;6943;52.368;9.966;2022-08-05T13:21:49;21.20;1.00
13744;DHT22;6943;52.368;9.966;2022-08-05T13:24:15;21.20;1.00
13744;DHT22;6943;52.368;9.966;2022-08-05T13:26:42;21.40;99.90
13744;DHT22;6943;52.368;9.966;2022-08-05T13:29:08;21.70;1.00
13744;DHT22;6943;52.368;9.966;2022-08-05T13:31:34;21.90;1.00
13744;DHT22;6943;52.368;9.966;2022-08-05T13:33:59;22.20;1.00
13744;DHT22;6943;52.368;9.966;2022-08-05T13:36:25;22.50;1.00
13744;DHT22;6943;52.368;9.966;2022-08-05T13:38:50;22.10;99.90
13744;DHT22;6943;52.368;9.966;2022-08-05T13:41:16;22.00;1.00
13744;DHT22;6943;52.368;9.966;2022-08-05T13:43:41;22.50;1.00
13744;DHT22;6943;52.368;9.966;2022-08-05T13:46:09;22.90;99.90
13744;DHT22;6943;52.368;9.966;2022-08-05T13:48:36;23.30;99.90
13744;DHT22;6943;52.368;9.966;2022-08-05T13:51:06;23.60;99.90
13744;DHT22;6943;52.368;9.966;2022-08-05T13:53:31;23.50;1.00
13744;DHT22;6943;52.368;9.966;2022-08-05T13:55:58;23.40;1.00
13744;DHT22;6943;52.368;9.966;2022-08-05T13:58:24;23.20;1.00
13744;DHT22;6943;52.368;9.966;2022-08-05T14:00:49;23.00;1.00
13744;DHT22;6943;52.368;9.966;2022-08-05T14:03:15;22.70;99.90
13744;DHT22;6943;52.368;9.966;2022-08-05T14:05:40;22.50;99.90
13744;DHT22;6943;52.368;9.966;2022-08-05T14:08:06;22.40;99.90
13744;DHT22;6943;52.368;9.966;2022-08-05T14:10:31;22.20;99.90
13744;DHT22;6943;52.368;9.966;2022-08-05T14:12:58;22.10;99.90
13744;DHT22;6943;52.368;9.966;2022-08-05T14:15:24;22.20;99.90
13744;DHT22;6943;52.368;9.966;2022-08-05T14:17:49;22.20;99.90
13744;DHT22;6943;52.368;9.966;2022-08-05T14:20:15;22.50;99.90
13744;DHT22;6943;52.368;9.966;2022-08-05T14:22:40;22.70;99.90
13744;DHT22;6943;52.368;9.966;2022-08-05T14:25:08;22.80;99.90
13744;DHT22;6943;52.368;9.966;2022-08-05T14:27:34;23.00;37.50
13744;DHT22;6943;52.368;9.966;2022-08-05T14:30:00;23.10;24.20
13744;DHT22;6943;52.368;9.966;2022-08-05T14:32:25;23.20;1.00
13744;DHT22;6943;52.368;9.966;2022-08-05T14:34:50;23.30;1.00
13744;DHT22;6943;52.368;9.966;2022-08-05T14:37:16;23.40;1.00
13744;DHT22;6943;52.368;9.966;2022-08-05T14:39:42;23.40;1.00
13744;DHT22;6943;52.368;9.966;2022-08-05T14:42:07;23.40;1.00
13744;DHT22;6943;52.368;9.966;2022-08-05T14:44:33;23.40;1.00
13744;DHT22;6943;52.368;9.966;2022-08-05T14:46:59;23.50;1.00
13744;DHT22;6943;52.368;9.966;2022-08-05T14:49:25;23.40;1.00
13744;DHT22;6943;52.368;9.966;2022-08-05T14:51:50;23.40;1.00
13744;DHT22;6943;52.368;9.966;2022-08-05T14:54:16;23.30;1.00
13744;DHT22;6943;52.368;9.966;2022-08-05T14:56:42;23.30;1.00
13744;DHT22;6943;52.368;9.966;2022-08-05T14:59:07;23.20;1.00
13744;DHT22;6943;52.368;9.966;2022-08-05T15:01:36;23.40;1.00
13744;DHT22;6943;52.368;9.966;2022-08-05T15:04:01;23.50;1.00
13744;DHT22;6943;52.368;9.966;2022-08-05T15:06:27;23.60;1.00
13744;DHT22;6943;52.368;9.966;2022-08-05T15:08:54;23.80;1.00
13744;DHT22;6943;52.368;9.966;2022-08-05T15:11:21;23.80;1.00
13744;DHT22;6943;52.368;9.966;2022-08-05T15:13:47;23.90;1.00
13744;DHT22;6943;52.368;9.966;2022-08-05T15:16:12;23.70;1.00
13744;DHT22;6943;52.368;9.966;2022-08-05T15:18:37;23.50;1.00
13744;DHT22;6943;52.368;9.966;2022-08-05T15:21:03;23.30;1.00
13744;DHT22;6943;52.368;9.966;2022-08-05T15:23:29;23.40;1.00
13744;DHT22;6943;52.368;9.966;2022-08-05T15:25:54;23.40;1.00
13744;DHT22;6943;52.368;9.966;2022-08-05T15:28:20;23.40;1.00
13744;DHT22;6943;52.368;9.966;2022-08-05T15:30:46;23.40;1.00
13744;DHT22;6943;52.368;9.966;2022-08-05T15:33:12;23.20;1.00
13744;DHT22;6943;52.368;9.966;2022-08-05T15:35:38;23.30;1.00
13744;DHT22;6943;52.368;9.966;2022-08-05T15:38:03;23.30;1.00
13744;DHT22;6943;52.368;9.966;2022-08-05T15:40:29;23.40;1.00
13744;DHT22;6943;52.368;9.966;2022-08-05T15:42:54;23.40;1.00
13744;DHT22;6943;52.368;9.966;2022-08-05T15:45:21;23.40;1.00
13744;DHT22;6943;52.368;9.966;2022-08-05T15:47:47;23.40;1.00
13744;DHT22;6943;52.368;9.966;2022-08-05T15:50:12;23.30;1.00
13744;DHT22;6943;52.368;9.966;2022-08-05T15:52:39;23.00;1.00
13744;DHT22;6943;52.368;9.966;2022-08-05T15:55:07;23.00;1.00
13744;DHT22;6943;52.368;9.966;2022-08-05T15:57:33;22.80;1.00
13744;DHT22;6943;52.368;9.966;2022-08-05T15:59:58;22.80;1.00
13744;DHT22;6943;52.368;9.966;2022-08-05T16:02:24;22.70;1.00
13744;DHT22;6943;52.368;9.966;2022-08-05T16:04:50;22.90;1.00
13744;DHT22;6943;52.368;9.966;2022-08-05T16:07:17;22.90;1.00
13744;DHT22;6943;52.368;9.966;2022-08-05T16:09:42;23.30;1.00
13744;DHT22;6943;52.368;9.966;2022-08-05T16:12:08;23.60;1.00
13744;DHT22;6943;52.368;9.966;2022-08-05T16:14:33;23.80;1.00
13744;DHT22;6943;52.368;9.966;2022-08-05T16:16:59;23.90;1.00
13744;DHT22;6943;52.368;9.966;2022-08-05T16:19:25;23.90;1.00
13744;DHT22;6943;52.368;9.966;2022-08-05T16:21:50;23.90;1.00
13744;DHT22;6943;52.368;9.966;2022-08-05T16:24:16;23.80;1.00